sensor_id;sensor_type;location;lat;lon;timestamp;pressure;altitude;pressure_sealevel;temperature;humidity
68456;BME280;55437;55.046;38.838;2023-04-26T00:02:17;98561.44;;;13.07;76.93
68456;BME280;55437;55.046;38.838;2023-04-26T00:04:43;98562.25;;;13.08;77.07
68456;BME280;55437;55.046;38.838;2023-04-26T00:07:11;98561.34;;;13.09;77.04
68456;BME280;55437;55.046;38.838;2023-04-26T00:09:38;98550.38;;;13.05;77.10
68456;BME280;55437;55.046;38.838;2023-04-26T00:12:07;98549.75;;;13.02;77.31
68456;BME280;55437;55.046;38.838;2023-04-26T00:14:34;98548.00;;;13.02;77.11
68456;BME280;55437;55.046;38.838;2023-04-26T00:17:00;98542.88;;;13.02;77.00
68456;BME280;55437;55.046;38.838;2023-04-26T00:19:28;98546.97;;;13.05;77.11
68456;BME280;55437;55.046;38.838;2023-04-26T00:22:23;98537.63;;;13.04;77.12
68456;BME280;55437;55.046;38.838;2023-04-26T00:24:50;98540.38;;;13.01;77.24
68456;BME280;55437;55.046;38.838;2023-04-26T00:27:16;98537.81;;;13.01;76.98
68456;BME280;55437;55.046;38.838;2023-04-26T00:29:42;98539.00;;;12.95;77.20
68456;BME280;55437;55.046;38.838;2023-04-26T00:32:08;98537.25;;;12.95;77.11
68456;BME280;55437;55.046;38.838;2023-04-26T00:34:35;98539.81;;;12.95;77.14
68456;BME280;55437;55.046;38.838;2023-04-26T00:37:01;98528.59;;;12.96;76.89
68456;BME280;55437;55.046;38.838;2023-04-26T00:39:29;98533.47;;;13.01;76.89
68456;BME280;55437;55.046;38.838;2023-04-26T00:41:55;98525.94;;;12.98;77.00
68456;BME280;55437;55.046;38.838;2023-04-26T00:47:32;98519.19;;;13.10;76.53
68456;BME280;55437;55.046;38.838;2023-04-26T00:49:59;98524.25;;;13.11;76.52
68456;BME280;55437;55.046;38.838;2023-04-26T00:52:44;98514.13;;;13.08;76.60
68456;BME280;55437;55.046;38.838;2023-04-26T00:55:12;98509.06;;;13.07;76.61
68456;BME280;55437;55.046;38.838;2023-04-26T00:57:57;98511.13;;;13.02;76.37
68456;BME280;55437;55.046;38.838;2023-04-26T01:05:53;98505.97;;;13.02;76.56
68456;BME280;55437;55.046;38.838;2023-04-26T01:08:19;98510.38;;;12.99;76.58
68456;BME280;55437;55.046;38.838;2023-04-26T01:13:50;98504.22;;;13.02;76.72
68456;BME280;55437;55.046;38.838;2023-04-26T01:16:34;98498.97;;;13.04;76.37
68456;BME280;55437;55.046;38.838;2023-04-26T01:19:09;98497.91;;;13.06;76.07
68456;BME280;55437;55.046;38.838;2023-04-26T01:21:44;98491.94;;;13.06;76.48
68456;BME280;55437;55.046;38.838;2023-04-26T01:24:32;98494.59;;;13.04;76.23
68456;BME280;55437;55.046;38.838;2023-04-26T01:27:02;98496.38;;;13.04;76.55
68456;BME280;55437;55.046;38.838;2023-04-26T01:29:29;98492.25;;;13.01;76.38
68456;BME280;55437;55.046;38.838;2023-04-26T01:31:56;98489.59;;;13.03;76.56
68456;BME280;55437;55.046;38.838;2023-04-26T01:34:22;98492.16;;;13.03;76.43
68456;BME280;55437;55.046;38.838;2023-04-26T01:37:06;98485.13;;;13.05;76.38
68456;BME280;55437;55.046;38.838;2023-04-26T01:39:33;98487.84;;;13.03;76.23
68456;BME280;55437;55.046;38.838;2023-04-26T01:41:59;98485.25;;;13.03;76.30
68456;BME280;55437;55.046;38.838;2023-04-26T01:44:25;98487.09;;;13.01;76.26
68456;BME280;55437;55.046;38.838;2023-04-26T01:46:51;98474.13;;;13.03;76.28
68456;BME280;55437;55.046;38.838;2023-04-26T01:49:35;98475.03;;;13.02;76.11
68456;BME280;55437;55.046;38.838;2023-04-26T01:52:01;98475.88;;;13.02;76.08
68456;BME280;55437;55.046;38.838;2023-04-26T01:54:29;98478.44;;;13.02;76.14
68456;BME280;55437;55.046;38.838;2023-04-26T01:56:54;98480.81;;;13.05;76.13
68456;BME280;55437;55.046;38.838;2023-04-26T01:59:22;98473.19;;;13.04;75.94
68456;BME280;55437;55.046;38.838;2023-04-26T02:01:48;98477.22;;;13.08;75.97
68456;BME280;55437;55.046;38.838;2023-04-26T02:04:14;98470.22;;;13.10;75.70
68456;BME280;55437;55.046;38.838;2023-04-26T02:06:41;98470.22;;;13.10;76.00
68456;BME280;55437;55.046;38.838;2023-04-26T02:09:07;98466.47;;;13.15;75.95
68456;BME280;55437;55.046;38.838;2023-04-26T02:11:39;98463.88;;;13.15;75.84
68456;BME280;55437;55.046;38.838;2023-04-26T02:14:05;98462.84;;;13.18;75.76
68456;BME280;55437;55.046;38.838;2023-04-26T02:16:31;98463.56;;;13.20;75.78
68456;BME280;55437;55.046;38.838;2023-04-26T02:18:58;98459.97;;;13.22;75.79
68456;BME280;55437;55.046;38.838;2023-04-26T02:21:25;98457.31;;;13.24;75.36
68456;BME280;55437;55.046;38.838;2023-04-26T02:23:53;98458.97;;;13.25;75.48
68456;BME280;55437;55.046;38.838;2023-04-26T02:26:44;98457.50;;;13.21;75.50
68456;BME280;55437;55.046;38.838;2023-04-26T02:29:10;98450.69;;;13.20;75.52
68456;BME280;55437;55.046;38.838;2023-04-26T02:31:35;98449.94;;;13.18;75.38
68456;BME280;55437;55.046;38.838;2023-04-26T02:34:02;98454.41;;;13.16;75.46
68456;BME280;55437;55.046;38.838;2023-04-26T02:36:27;98449.94;;;13.18;75.74
68456;BME280;55437;55.046;38.838;2023-04-26T02:38:54;98454.00;;;13.22;75.79
68456;BME280;55437;55.046;38.838;2023-04-26T02:41:22;98447.00;;;13.24;75.60
68456;BME280;55437;55.046;38.838;2023-04-26T02:43:49;98449.66;;;13.22;75.44
68456;BME280;55437;55.046;38.838;2023-04-26T02:46:17;98452.53;;;13.18;75.56
68456;BME280;55437;55.046;38.838;2023-04-26T02:48:43;98448.09;;;13.20;75.80
68456;BME280;55437;55.046;38.838;2023-04-26T02:51:09;98444.59;;;13.21;75.58
68456;BME280;55437;55.046;38.838;2023-04-26T02:53:36;98445.25;;;13.24;75.62
68456;BME280;55437;55.046;38.838;2023-04-26T02:56:02;98442.56;;;13.26;75.31
68456;BME280;55437;55.046;38.838;2023-04-26T02:58:28;98442.47;;;13.27;75.18
68456;BME280;55437;55.046;38.838;2023-04-26T03:00:56;98445.25;;;13.24;75.54
68456;BME280;55437;55.046;38.838;2023-04-26T03:03:24;98440.81;;;13.26;75.34
68456;BME280;55437;55.046;38.838;2023-04-26T03:06:15;98440.59;;;13.29;75.44
68456;BME280;55437;55.046;38.838;2023-04-26T03:09:00;98432.69;;;13.32;75.24
68456;BME280;55437;55.046;38.838;2023-04-26T03:11:26;98438.66;;;13.33;75.04
68456;BME280;55437;55.046;38.838;2023-04-26T03:13:53;98437.72;;;13.34;75.21
68456;BME280;55437;55.046;38.838;2023-04-26T03:16:19;98431.75;;;13.33;75.40
68456;BME280;55437;55.046;38.838;2023-04-26T03:18:46;98434.13;;;13.37;75.38
68456;BME280;55437;55.046;38.838;2023-04-26T03:21:13;98431.75;;;13.33;75.43
68456;BME280;55437;55.046;38.838;2023-04-26T03:23:43;98429.91;;;13.36;75.48
68456;BME280;55437;55.046;38.838;2023-04-26T03:26:09;98428.16;;;13.36;75.23
68456;BME280;55437;55.046;38.838;2023-04-26T03:28:37;98429.91;;;13.36;75.15
68456;BME280;55437;55.046;38.838;2023-04-26T03:31:04;98426.41;;;13.37;75.45
68456;BME280;55437;55.046;38.838;2023-04-26T03:33:30;98426.41;;;13.37;75.24
68456;BME280;55437;55.046;38.838;2023-04-26T03:35:56;98427.13;;;13.39;75.34
68456;BME280;55437;55.046;38.838;2023-04-26T03:38:23;98427.72;;;13.42;75.07
68456;BME280;55437;55.046;38.838;2023-04-26T03:40:52;98426.91;;;13.42;75.32
68456;BME280;55437;55.046;38.838;2023-04-26T03:43:43;98422.66;;;13.41;75.30
68456;BME280;55437;55.046;38.838;2023-04-26T03:46:11;98420.00;;;13.42;75.16
68456;BME280;55437;55.046;38.838;2023-04-26T03:48:38;98425.06;;;13.44;75.27
68456;BME280;55437;55.046;38.838;2023-04-26T03:51:05;98420.63;;;13.46;75.05
68456;BME280;55437;55.046;38.838;2023-04-26T03:53:31;98410.13;;;13.49;75.32
68456;BME280;55437;55.046;38.838;2023-04-26T03:55:58;98412.38;;;13.53;75.23
68456;BME280;55437;55.046;38.838;2023-04-26T03:58:25;98413.44;;;13.51;74.99
68456;BME280;55437;55.046;38.838;2023-04-26T04:00:55;98419.41;;;13.51;75.20
68456;BME280;55437;55.046;38.838;2023-04-26T04:03:20;98414.13;;;13.53;75.16
68456;BME280;55437;55.046;38.838;2023-04-26T04:05:48;98413.19;;;13.54;75.07
68456;BME280;55437;55.046;38.838;2023-04-26T04:08:15;98409.69;;;13.55;74.94
68456;BME280;55437;55.046;38.838;2023-04-26T04:10:42;98415.69;;;13.55;74.85
68456;BME280;55437;55.046;38.838;2023-04-26T04:13:09;98416.50;;;13.56;74.93
68456;BME280;55437;55.046;38.838;2023-04-26T04:15:36;98412.91;;;13.58;74.93
68456;BME280;55437;55.046;38.838;2023-04-26T04:18:02;98415.28;;;13.61;74.73
68456;BME280;55437;55.046;38.838;2023-04-26T04:20:29;98416.94;;;13.62;74.75
68456;BME280;55437;55.046;38.838;2023-04-26T04:22:56;98413.09;;;13.68;74.93
68456;BME280;55437;55.046;38.838;2023-04-26T04:25:27;98417.97;;;13.73;74.61
68456;BME280;55437;55.046;38.838;2023-04-26T04:27:57;98411.34;;;13.68;74.75
68456;BME280;55437;55.046;38.838;2023-04-26T04:30:23;98415.59;;;13.69;74.80
68456;BME280;55437;55.046;38.838;2023-04-26T04:32:50;98418.69;;;13.75;74.71
68456;BME280;55437;55.046;38.838;2023-04-26T04:35:43;98416.72;;;13.78;74.56
68456;BME280;55437;55.046;38.838;2023-04-26T04:38:12;98409.41;;;13.85;74.46
68456;BME280;55437;55.046;38.838;2023-04-26T04:41:04;98413.41;;;13.89;74.04
68456;BME280;55437;55.046;38.838;2023-04-26T04:43:34;98412.28;;;13.93;74.07
68456;BME280;55437;55.046;38.838;2023-04-26T04:46:02;98416.13;;;13.87;74.08
68456;BME280;55437;55.046;38.838;2023-04-26T04:48:28;98415.19;;;13.88;74.52
68456;BME280;55437;55.046;38.838;2023-04-26T04:50:54;98416.50;;;13.94;74.39
68456;BME280;55437;55.046;38.838;2023-04-26T04:53:25;98413.53;;;14.00;74.08
68456;BME280;55437;55.046;38.838;2023-04-26T04:55:52;98410.81;;;14.01;74.17
68456;BME280;55437;55.046;38.838;2023-04-26T04:58:20;98407.19;;;14.04;74.12
68456;BME280;55437;55.046;38.838;2023-04-26T05:00:47;98405.16;;;14.09;74.20
68456;BME280;55437;55.046;38.838;2023-04-26T05:03:20;98411.97;;;14.10;73.83
68456;BME280;55437;55.046;38.838;2023-04-26T05:06:04;98413.63;;;14.11;73.97
68456;BME280;55437;55.046;38.838;2023-04-26T05:08:55;98407.53;;;14.12;74.04
68456;BME280;55437;55.046;38.838;2023-04-26T05:11:22;98409.75;;;14.17;73.92
68456;BME280;55437;55.046;38.838;2023-04-26T05:13:51;98415.44;;;14.22;73.71
68456;BME280;55437;55.046;38.838;2023-04-26T05:16:18;98416.75;;;14.27;73.72
68456;BME280;55437;55.046;38.838;2023-04-26T05:18:45;98413.25;;;14.28;73.59
68456;BME280;55437;55.046;38.838;2023-04-26T05:21:11;98411.38;;;14.30;73.45
68456;BME280;55437;55.046;38.838;2023-04-26T05:23:37;98409.63;;;14.31;73.41
68456;BME280;55437;55.046;38.838;2023-04-26T05:26:22;98407.16;;;14.29;73.49
68456;BME280;55437;55.046;38.838;2023-04-26T05:29:14;98414.50;;;14.35;73.47
68456;BME280;55437;55.046;38.838;2023-04-26T05:31:59;98418.31;;;14.43;73.34
68456;BME280;55437;55.046;38.838;2023-04-26T05:34:42;98399.31;;;14.44;73.03
68456;BME280;55437;55.046;38.838;2023-04-26T05:37:40;98412.22;;;14.44;73.02
68456;BME280;55437;55.046;38.838;2023-04-26T05:40:08;98415.09;;;14.39;73.07
68456;BME280;55437;55.046;38.838;2023-04-26T05:42:38;98415.94;;;14.39;73.24
68456;BME280;55437;55.046;38.838;2023-04-26T05:45:06;98406.50;;;14.38;73.36
68456;BME280;55437;55.046;38.838;2023-04-26T05:47:34;98411.91;;;14.35;73.54
68456;BME280;55437;55.046;38.838;2023-04-26T05:50:01;98415.19;;;14.37;73.42
68456;BME280;55437;55.046;38.838;2023-04-26T05:55:14;98413.78;;;14.33;73.67
68456;BME280;55437;55.046;38.838;2023-04-26T05:57:40;98421.50;;;14.33;73.84
68456;BME280;55437;55.046;38.838;2023-04-26T06:00:07;98410.47;;;14.31;73.94
68456;BME280;55437;55.046;38.838;2023-04-26T06:02:42;98414.50;;;14.35;73.85
68456;BME280;55437;55.046;38.838;2023-04-26T06:05:13;98418.00;;;14.34;73.84
68456;BME280;55437;55.046;38.838;2023-04-26T06:07:40;98419.25;;;14.29;74.15
68456;BME280;55437;55.046;38.838;2023-04-26T06:10:07;98420.41;;;14.25;74.24
68456;BME280;55437;55.046;38.838;2023-04-26T06:12:34;98426.88;;;14.30;74.19
68456;BME280;55437;55.046;38.838;2023-04-26T06:15:00;98420.34;;;14.37;74.12
68456;BME280;55437;55.046;38.838;2023-04-26T06:17:30;98416.25;;;14.48;73.91
68456;BME280;55437;55.046;38.838;2023-04-26T06:19:56;98427.38;;;14.61;73.84
68456;BME280;55437;55.046;38.838;2023-04-26T06:22:29;98421.03;;;14.65;73.82
68456;BME280;55437;55.046;38.838;2023-04-26T06:25:27;98422.38;;;14.70;73.63
68456;BME280;55437;55.046;38.838;2023-04-26T06:28:12;98427.44;;;14.72;73.57
68456;BME280;55437;55.046;38.838;2023-04-26T06:30:37;98428.72;;;14.77;73.57
68456;BME280;55437;55.046;38.838;2023-04-26T06:33:05;98425.22;;;14.78;73.13
68456;BME280;55437;55.046;38.838;2023-04-26T06:35:32;98427.06;;;14.76;73.46
68456;BME280;55437;55.046;38.838;2023-04-26T06:37:58;98423.09;;;14.72;73.46
68456;BME280;55437;55.046;38.838;2023-04-26T06:40:25;98430.00;;;14.72;73.73
68456;BME280;55437;55.046;38.838;2023-04-26T06:42:51;98433.06;;;14.77;73.44
68456;BME280;55437;55.046;38.838;2023-04-26T06:45:33;98430.66;;;14.87;73.21
68456;BME280;55437;55.046;38.838;2023-04-26T06:48:17;98432.47;;;14.97;73.08
68456;BME280;55437;55.046;38.838;2023-04-26T06:50:44;98435.66;;;15.01;72.94
68456;BME280;55437;55.046;38.838;2023-04-26T06:53:11;98435.59;;;15.13;71.75
68456;BME280;55437;55.046;38.838;2023-04-26T06:55:37;98439.53;;;15.30;71.04
68456;BME280;55437;55.046;38.838;2023-04-26T06:58:02;98443.91;;;15.41;70.64
68456;BME280;55437;55.046;38.838;2023-04-26T07:00:28;98439.91;;;15.37;70.37
68456;BME280;55437;55.046;38.838;2023-04-26T07:02:54;98450.72;;;15.31;70.73
68456;BME280;55437;55.046;38.838;2023-04-26T07:05:20;98446.41;;;15.42;70.15
68456;BME280;55437;55.046;38.838;2023-04-26T07:07:46;98448.97;;;15.66;69.47
68456;BME280;55437;55.046;38.838;2023-04-26T07:10:12;98449.19;;;15.74;69.34
68456;BME280;55437;55.046;38.838;2023-04-26T07:12:38;98448.47;;;15.72;69.54
68456;BME280;55437;55.046;38.838;2023-04-26T07:15:04;98450.81;;;15.64;69.93
68456;BME280;55437;55.046;38.838;2023-04-26T07:17:32;98458.34;;;15.56;70.34
68456;BME280;55437;55.046;38.838;2023-04-26T07:19:59;98456.88;;;15.52;70.56
68456;BME280;55437;55.046;38.838;2023-04-26T07:22:25;98451.34;;;15.45;70.42
68456;BME280;55437;55.046;38.838;2023-04-26T07:24:51;98459.88;;;15.35;70.55
68456;BME280;55437;55.046;38.838;2023-04-26T07:27:17;98460.09;;;15.21;71.11
68456;BME280;55437;55.046;38.838;2023-04-26T07:29:42;98460.84;;;15.10;71.39
68456;BME280;55437;55.046;38.838;2023-04-26T07:32:08;98462.94;;;15.05;71.93
68456;BME280;55437;55.046;38.838;2023-04-26T07:34:34;98469.16;;;15.02;71.99
68456;BME280;55437;55.046;38.838;2023-04-26T07:37:00;98468.31;;;15.02;72.23
68456;BME280;55437;55.046;38.838;2023-04-26T07:39:26;98465.75;;;15.02;72.46
68456;BME280;55437;55.046;38.838;2023-04-26T07:41:51;98471.22;;;14.97;72.29
68456;BME280;55437;55.046;38.838;2023-04-26T07:44:17;98473.13;;;14.95;72.34
68456;BME280;55437;55.046;38.838;2023-04-26T07:46:43;98470.03;;;14.90;72.48
68456;BME280;55437;55.046;38.838;2023-04-26T07:49:09;98480.06;;;14.95;72.70
68456;BME280;55437;55.046;38.838;2023-04-26T07:51:35;98471.06;;;14.88;72.59
68456;BME280;55437;55.046;38.838;2023-04-26T07:54:01;98479.47;;;14.78;72.91
68456;BME280;55437;55.046;38.838;2023-04-26T07:56:33;98477.94;;;14.76;73.02
68456;BME280;55437;55.046;38.838;2023-04-26T07:59:04;98481.34;;;14.76;72.90
68456;BME280;55437;55.046;38.838;2023-04-26T08:01:34;98483.34;;;14.73;72.86
68456;BME280;55437;55.046;38.838;2023-04-26T08:04:00;98483.00;;;14.77;73.00
68456;BME280;55437;55.046;38.838;2023-04-26T08:06:26;98486.19;;;14.81;72.97
68456;BME280;55437;55.046;38.838;2023-04-26T08:08:53;98483.59;;;14.81;72.74
68456;BME280;55437;55.046;38.838;2023-04-26T08:11:22;98493.13;;;14.81;73.14
68456;BME280;55437;55.046;38.838;2023-04-26T08:13:48;98493.94;;;14.81;73.28
68456;BME280;55437;55.046;38.838;2023-04-26T08:16:14;98494.44;;;14.86;73.22
68456;BME280;55437;55.046;38.838;2023-04-26T08:18:40;98497.00;;;14.86;73.17
68456;BME280;55437;55.046;38.838;2023-04-26T08:21:05;98491.84;;;14.86;73.10
68456;BME280;55437;55.046;38.838;2023-04-26T08:23:32;98492.88;;;14.96;72.88
68456;BME280;55437;55.046;38.838;2023-04-26T08:26:00;98503.94;;;15.09;72.83
68456;BME280;55437;55.046;38.838;2023-04-26T08:28:32;98501.81;;;15.03;72.63
68456;BME280;55437;55.046;38.838;2023-04-26T08:31:18;98499.06;;;14.94;72.75
68456;BME280;55437;55.046;38.838;2023-04-26T08:33:44;98505.19;;;14.93;72.99
68456;BME280;55437;55.046;38.838;2023-04-26T08:36:11;98504.81;;;14.97;72.94
68456;BME280;55437;55.046;38.838;2023-04-26T08:38:40;98500.88;;;15.04;73.13
68456;BME280;55437;55.046;38.838;2023-04-26T08:41:12;98500.34;;;15.12;72.97
68456;BME280;55437;55.046;38.838;2023-04-26T08:43:40;98502.16;;;15.23;72.63
68456;BME280;55437;55.046;38.838;2023-04-26T08:46:11;98498.50;;;15.25;72.59
68456;BME280;55437;55.046;38.838;2023-04-26T08:48:42;98499.34;;;15.26;72.59
68456;BME280;55437;55.046;38.838;2023-04-26T08:51:11;98507.81;;;15.28;72.74
68456;BME280;55437;55.046;38.838;2023-04-26T08:53:44;98508.69;;;15.39;72.14
68456;BME280;55437;55.046;38.838;2023-04-26T08:56:33;98508.25;;;15.45;72.34
68456;BME280;55437;55.046;38.838;2023-04-26T08:59:00;98515.19;;;15.45;72.23
68456;BME280;55437;55.046;38.838;2023-04-26T09:01:27;98511.16;;;15.41;72.14
68456;BME280;55437;55.046;38.838;2023-04-26T09:04:04;98515.41;;;15.42;72.46
68456;BME280;55437;55.046;38.838;2023-04-26T09:06:34;98518.59;;;15.45;72.13
68456;BME280;55437;55.046;38.838;2023-04-26T09:09:05;98520.22;;;15.46;72.36
68456;BME280;55437;55.046;38.838;2023-04-26T09:11:53;98521.31;;;15.44;72.38
68456;BME280;55437;55.046;38.838;2023-04-26T09:14:38;98527.06;;;15.47;72.14
68456;BME280;55437;55.046;38.838;2023-04-26T09:17:03;98523.78;;;15.45;72.46
68456;BME280;55437;55.046;38.838;2023-04-26T09:19:38;98531.97;;;15.63;71.61
68456;BME280;55437;55.046;38.838;2023-04-26T09:22:05;98526.72;;;15.76;71.28
68456;BME280;55437;55.046;38.838;2023-04-26T09:24:45;98535.88;;;15.69;71.30
68456;BME280;55437;55.046;38.838;2023-04-26T09:27:13;98530.78;;;15.56;71.85
68456;BME280;55437;55.046;38.838;2023-04-26T09:29:56;98537.63;;;15.57;71.98
68456;BME280;55437;55.046;38.838;2023-04-26T09:32:25;98530.25;;;15.51;72.15
68456;BME280;55437;55.046;38.838;2023-04-26T09:34:57;98532.56;;;15.56;72.26
68456;BME280;55437;55.046;38.838;2023-04-26T09:37:26;98539.25;;;15.58;72.09
68456;BME280;55437;55.046;38.838;2023-04-26T09:39:58;98539.03;;;15.61;72.14
68456;BME280;55437;55.046;38.838;2023-04-26T09:42:29;98547.25;;;15.55;72.26
68456;BME280;55437;55.046;38.838;2023-04-26T09:45:05;98540.50;;;15.53;72.61
68456;BME280;55437;55.046;38.838;2023-04-26T09:47:38;98550.34;;;15.47;72.75
68456;BME280;55437;55.046;38.838;2023-04-26T09:50:08;98549.41;;;15.48;72.91
68456;BME280;55437;55.046;38.838;2023-04-26T09:52:43;98550.84;;;15.53;72.72
68456;BME280;55437;55.046;38.838;2023-04-26T09:55:09;98553.81;;;15.59;72.18
68456;BME280;55437;55.046;38.838;2023-04-26T09:57:41;98555.16;;;15.65;71.98
68456;BME280;55437;55.046;38.838;2023-04-26T10:00:09;98553.28;;;15.67;72.19
68456;BME280;55437;55.046;38.838;2023-04-26T10:02:37;98561.97;;;15.66;72.03
68456;BME280;55437;55.046;38.838;2023-04-26T10:05:05;98562.41;;;15.60;72.26
68456;BME280;55437;55.046;38.838;2023-04-26T10:07:32;98561.47;;;15.61;72.39
68456;BME280;55437;55.046;38.838;2023-04-26T10:10:01;98560.22;;;15.66;72.44
68456;BME280;55437;55.046;38.838;2023-04-26T10:12:30;98572.22;;;15.67;72.25
68456;BME280;55437;55.046;38.838;2023-04-26T10:14:58;98571.97;;;15.70;72.33
68456;BME280;55437;55.046;38.838;2023-04-26T10:17:24;98573.16;;;15.66;72.49
68456;BME280;55437;55.046;38.838;2023-04-26T10:19:55;98574.31;;;15.62;72.53
68456;BME280;55437;55.046;38.838;2023-04-26T10:22:36;98587.88;;;15.66;72.52
68456;BME280;55437;55.046;38.838;2023-04-26T10:25:07;98587.78;;;15.78;71.99
68456;BME280;55437;55.046;38.838;2023-04-26T10:30:13;98594.13;;;16.20;70.98
68456;BME280;55437;55.046;38.838;2023-04-26T10:35:28;98591.50;;;16.67;69.95
68456;BME280;55437;55.046;38.838;2023-04-26T10:40:30;98594.94;;;17.01;68.62
68456;BME280;55437;55.046;38.838;2023-04-26T10:45:45;98607.09;;;16.89;68.23
68456;BME280;55437;55.046;38.838;2023-04-26T10:53:27;98619.81;;;16.81;66.76
68456;BME280;55437;55.046;38.838;2023-04-26T10:55:52;98622.38;;;16.70;67.17
68456;BME280;55437;55.046;38.838;2023-04-26T10:58:28;98631.78;;;16.60;67.12
68456;BME280;55437;55.046;38.838;2023-04-26T11:01:17;98636.00;;;16.49;67.44
68456;BME280;55437;55.046;38.838;2023-04-26T11:06:53;98654.50;;;16.10;67.35
68456;BME280;55437;55.046;38.838;2023-04-26T11:12:06;98657.09;;;15.62;68.12
68456;BME280;55437;55.046;38.838;2023-04-26T11:14:33;98658.50;;;15.42;68.94
68456;BME280;55437;55.046;38.838;2023-04-26T11:17:04;98657.38;;;15.34;69.58
68456;BME280;55437;55.046;38.838;2023-04-26T11:19:44;98662.47;;;15.23;70.20
68456;BME280;55437;55.046;38.838;2023-04-26T11:22:14;98668.88;;;15.30;70.18
68456;BME280;55437;55.046;38.838;2023-04-26T11:24:41;98674.84;;;15.43;70.13
68456;BME280;55437;55.046;38.838;2023-04-26T11:27:08;98680.09;;;15.54;70.25
68456;BME280;55437;55.046;38.838;2023-04-26T11:29:37;98677.59;;;15.65;70.42
68456;BME280;55437;55.046;38.838;2023-04-26T11:32:03;98671.97;;;15.71;70.57
68456;BME280;55437;55.046;38.838;2023-04-26T11:37:12;98692.09;;;15.92;70.91
68456;BME280;55437;55.046;38.838;2023-04-26T11:39:43;98690.03;;;15.84;70.91
68456;BME280;55437;55.046;38.838;2023-04-26T11:42:12;98700.28;;;15.85;71.13
68456;BME280;55437;55.046;38.838;2023-04-26T11:44:39;98698.31;;;15.89;71.15
68456;BME280;55437;55.046;38.838;2023-04-26T11:47:05;98700.63;;;15.81;71.42
68456;BME280;55437;55.046;38.838;2023-04-26T11:49:35;98711.31;;;15.76;71.54
68456;BME280;55437;55.046;38.838;2023-04-26T11:52:04;98717.78;;;15.82;71.05
68456;BME280;55437;55.046;38.838;2023-04-26T11:54:33;98716.59;;;15.99;70.59
68456;BME280;55437;55.046;38.838;2023-04-26T11:57:00;98724.97;;;16.02;70.15
68456;BME280;55437;55.046;38.838;2023-04-26T12:00:12;98726.22;;;15.97;69.82
68456;BME280;55437;55.046;38.838;2023-04-26T12:02:43;98725.44;;;15.83;70.01
68456;BME280;55437;55.046;38.838;2023-04-26T12:05:21;98728.59;;;15.76;70.21
68456;BME280;55437;55.046;38.838;2023-04-26T12:07:51;98729.97;;;15.69;70.35
68456;BME280;55437;55.046;38.838;2023-04-26T12:10:26;98730.28;;;15.64;70.85
68456;BME280;55437;55.046;38.838;2023-04-26T12:12:54;98735.88;;;15.58;70.79
68456;BME280;55437;55.046;38.838;2023-04-26T12:15:28;98733.53;;;15.55;70.98
68456;BME280;55437;55.046;38.838;2023-04-26T12:18:13;98733.53;;;15.55;70.91
68456;BME280;55437;55.046;38.838;2023-04-26T12:20:41;98729.56;;;15.62;71.38
68456;BME280;55437;55.046;38.838;2023-04-26T12:23:09;98736.34;;;15.76;70.99
68456;BME280;55437;55.046;38.838;2023-04-26T12:25:40;98733.28;;;15.95;70.68
68456;BME280;55437;55.046;38.838;2023-04-26T12:28:09;98731.16;;;16.12;70.94
68456;BME280;55437;55.046;38.838;2023-04-26T12:30:38;98734.88;;;16.32;70.72
68456;BME280;55437;55.046;38.838;2023-04-26T12:33:05;98731.88;;;16.49;70.50
68456;BME280;55437;55.046;38.838;2023-04-26T12:35:35;98732.56;;;16.64;69.77
68456;BME280;55437;55.046;38.838;2023-04-26T12:38:01;98732.94;;;16.82;69.31
68456;BME280;55437;55.046;38.838;2023-04-26T12:40:27;98725.66;;;16.98;68.64
68456;BME280;55437;55.046;38.838;2023-04-26T12:42:57;98730.50;;;17.14;67.76
68456;BME280;55437;55.046;38.838;2023-04-26T12:45:26;98732.72;;;17.29;66.45
68456;BME280;55437;55.046;38.838;2023-04-26T12:47:54;98743.13;;;17.41;65.18
68456;BME280;55437;55.046;38.838;2023-04-26T12:50:21;98749.00;;;17.54;64.58
68456;BME280;55437;55.046;38.838;2023-04-26T12:52:49;98752.09;;;17.59;63.71
68456;BME280;55437;55.046;38.838;2023-04-26T12:55:15;98759.03;;;17.81;62.39
68456;BME280;55437;55.046;38.838;2023-04-26T12:57:43;98762.31;;;17.94;61.83
68456;BME280;55437;55.046;38.838;2023-04-26T13:00:13;98761.13;;;18.09;60.43
68456;BME280;55437;55.046;38.838;2023-04-26T13:02:40;98759.97;;;18.34;59.30
68456;BME280;55437;55.046;38.838;2023-04-26T13:05:07;98769.63;;;18.43;58.22
68456;BME280;55437;55.046;38.838;2023-04-26T13:07:37;98768.09;;;18.41;57.26
68456;BME280;55437;55.046;38.838;2023-04-26T13:10:05;98773.53;;;18.38;57.41
68456;BME280;55437;55.046;38.838;2023-04-26T13:12:33;98784.50;;;18.09;58.02
68456;BME280;55437;55.046;38.838;2023-04-26T13:15:01;98783.47;;;17.78;58.54
68456;BME280;55437;55.046;38.838;2023-04-26T13:17:29;98784.50;;;17.53;58.89
68456;BME280;55437;55.046;38.838;2023-04-26T13:19:56;98783.81;;;17.40;59.59
68456;BME280;55437;55.046;38.838;2023-04-26T13:22:22;98790.53;;;17.43;59.96
68456;BME280;55437;55.046;38.838;2023-04-26T13:24:47;98779.44;;;17.52;60.06
68456;BME280;55437;55.046;38.838;2023-04-26T13:27:13;98782.19;;;17.61;60.29
68456;BME280;55437;55.046;38.838;2023-04-26T13:29:42;98781.94;;;17.64;60.44
68456;BME280;55437;55.046;38.838;2023-04-26T13:32:08;98790.44;;;17.67;60.40
68456;BME280;55437;55.046;38.838;2023-04-26T13:34:34;98785.34;;;17.76;59.98
68456;BME280;55437;55.046;38.838;2023-04-26T13:37:01;98788.91;;;17.75;59.92
68456;BME280;55437;55.046;38.838;2023-04-26T13:39:29;98791.72;;;17.61;60.04
68456;BME280;55437;55.046;38.838;2023-04-26T13:41:55;98788.91;;;17.75;59.34
68456;BME280;55437;55.046;38.838;2023-04-26T13:44:24;98794.22;;;17.85;59.11